sensor_id;sensor_type;location;lat;lon;timestamp;pressure;altitude;pressure_sealevel;temperature;humidity
8318;BME280;4196;48.926;8.964;2022-07-15T00:02:33;99319.94;;;17.02;67.96
8318;BME280;4196;48.926;8.964;2022-07-15T00:05:20;99323.63;;;16.95;68.83
8318;BME280;4196;48.926;8.964;2022-07-15T00:08:07;99301.44;;;16.73;69.13
8318;BME280;4196;48.926;8.964;2022-07-15T00:10:53;99334.50;;;16.77;69.31
8318;BME280;4196;48.926;8.964;2022-07-15T00:13:40;99325.81;;;16.75;69.75
8318;BME280;4196;48.926;8.964;2022-07-15T00:16:26;99332.06;;;16.67;69.78
8318;BME280;4196;48.926;8.964;2022-07-15T00:19:13;99324.56;;;16.52;71.42
8318;BME280;4196;48.926;8.964;2022-07-15T00:22:00;99321.16;;;16.49;71.42
8318;BME280;4196;48.926;8.964;2022-07-15T00:24:47;99327.25;;;16.49;71.98
8318;BME280;4196;48.926;8.964;2022-07-15T00:27:33;99327.47;;;16.38;71.87
8318;BME280;4196;48.926;8.964;2022-07-15T00:30:21;99325.94;;;16.31;72.94
8318;BME280;4196;48.926;8.964;2022-07-15T00:33:09;99301.09;;;16.10;73.98
8318;BME280;4196;48.926;8.964;2022-07-15T00:35:57;99320.22;;;16.12;74.11
8318;BME280;4196;48.926;8.964;2022-07-15T00:38:43;99316.91;;;16.04;74.71
8318;BME280;4196;48.926;8.964;2022-07-15T00:41:37;99319.56;;;16.03;76.45
8318;BME280;4196;48.926;8.964;2022-07-15T00:44:23;99316.38;;;15.87;76.94
8318;BME280;4196;48.926;8.964;2022-07-15T00:47:10;99315.56;;;15.85;77.22
8318;BME280;4196;48.926;8.964;2022-07-15T00:49:57;99326.13;;;15.79;77.89
8318;BME280;4196;48.926;8.964;2022-07-15T00:52:48;99326.16;;;15.76;78.30
8318;BME280;4196;48.926;8.964;2022-07-15T00:55:38;99307.44;;;15.52;79.98
8318;BME280;4196;48.926;8.964;2022-07-15T00:58:26;99307.56;;;15.46;80.37
8318;BME280;4196;48.926;8.964;2022-07-15T01:01:14;99321.50;;;15.46;81.42
8318;BME280;4196;48.926;8.964;2022-07-15T01:04:05;99319.94;;;15.35;82.33
8318;BME280;4196;48.926;8.964;2022-07-15T01:06:52;99324.34;;;15.33;82.74
8318;BME280;4196;48.926;8.964;2022-07-15T01:09:38;99325.28;;;15.29;83.27
8318;BME280;4196;48.926;8.964;2022-07-15T01:12:26;99315.97;;;15.12;84.07
8318;BME280;4196;48.926;8.964;2022-07-15T01:15:12;99315.25;;;15.04;84.16
8318;BME280;4196;48.926;8.964;2022-07-15T01:18:01;99322.19;;;15.05;83.40
8318;BME280;4196;48.926;8.964;2022-07-15T01:20:51;99326.59;;;15.02;83.61
8318;BME280;4196;48.926;8.964;2022-07-15T01:23:38;99318.06;;;14.92;84.45
8318;BME280;4196;48.926;8.964;2022-07-15T01:26:45;99325.13;;;14.84;85.31
8318;BME280;4196;48.926;8.964;2022-07-15T01:29:34;99320.97;;;14.73;86.05
8318;BME280;4196;48.926;8.964;2022-07-15T01:32:21;99319.41;;;14.60;86.72
8318;BME280;4196;48.926;8.964;2022-07-15T01:35:08;99309.22;;;14.43;86.35
8318;BME280;4196;48.926;8.964;2022-07-15T01:37:58;99324.81;;;14.45;87.06
8318;BME280;4196;48.926;8.964;2022-07-15T01:40:46;99318.78;;;14.41;87.02
8318;BME280;4196;48.926;8.964;2022-07-15T01:43:32;99324.88;;;14.42;87.44
8318;BME280;4196;48.926;8.964;2022-07-15T01:46:19;99323.97;;;14.44;88.31
8318;BME280;4196;48.926;8.964;2022-07-15T01:49:07;99319.84;;;14.30;88.93
8318;BME280;4196;48.926;8.964;2022-07-15T01:52:19;99325.13;;;14.23;89.05
8318;BME280;4196;48.926;8.964;2022-07-15T01:55:07;99324.28;;;14.20;88.58
8318;BME280;4196;48.926;8.964;2022-07-15T01:57:55;99326.09;;;14.15;89.74
8318;BME280;4196;48.926;8.964;2022-07-15T02:00:41;99325.31;;;14.08;89.92
8318;BME280;4196;48.926;8.964;2022-07-15T02:03:28;99303.81;;;13.92;89.97
8318;BME280;4196;48.926;8.964;2022-07-15T02:06:14;99317.75;;;13.88;91.13
8318;BME280;4196;48.926;8.964;2022-07-15T02:09:02;99315.97;;;13.90;90.84
8318;BME280;4196;48.926;8.964;2022-07-15T02:11:52;99312.56;;;13.88;90.86
8318;BME280;4196;48.926;8.964;2022-07-15T02:14:41;99323.91;;;13.80;91.40
8318;BME280;4196;48.926;8.964;2022-07-15T02:17:28;99312.78;;;13.65;91.26
8318;BME280;4196;48.926;8.964;2022-07-15T02:20:15;99318.84;;;13.67;92.35
8318;BME280;4196;48.926;8.964;2022-07-15T02:23:01;99324.13;;;13.61;92.91
8318;BME280;4196;48.926;8.964;2022-07-15T02:25:48;99320.66;;;13.61;92.20
8318;BME280;4196;48.926;8.964;2022-07-15T02:28:41;99325.09;;;13.52;92.53
8318;BME280;4196;48.926;8.964;2022-07-15T02:31:29;99326.00;;;13.47;93.05
8318;BME280;4196;48.926;8.964;2022-07-15T02:34:16;99306.22;;;13.34;93.30
8318;BME280;4196;48.926;8.964;2022-07-15T02:37:03;99325.16;;;13.43;93.54
8318;BME280;4196;48.926;8.964;2022-07-15T02:39:50;99325.13;;;13.46;93.60
8318;BME280;4196;48.926;8.964;2022-07-15T02:42:37;99324.31;;;13.44;93.40
8318;BME280;4196;48.926;8.964;2022-07-15T02:45:26;99322.63;;;13.36;92.67
8318;BME280;4196;48.926;8.964;2022-07-15T02:48:15;99327.94;;;13.29;92.60
8318;BME280;4196;48.926;8.964;2022-07-15T02:51:04;99341.72;;;13.35;91.93
8318;BME280;4196;48.926;8.964;2022-07-15T02:53:51;99322.78;;;13.17;92.91
8318;BME280;4196;48.926;8.964;2022-07-15T02:56:41;99345.25;;;13.31;93.07
8318;BME280;4196;48.926;8.964;2022-07-15T02:59:27;99348.75;;;13.20;93.74
8318;BME280;4196;48.926;8.964;2022-07-15T03:02:16;99345.28;;;13.21;94.70
8318;BME280;4196;48.926;8.964;2022-07-15T03:05:04;99335.00;;;13.06;94.29
8318;BME280;4196;48.926;8.964;2022-07-15T03:07:51;99345.31;;;13.18;93.91
8318;BME280;4196;48.926;8.964;2022-07-15T03:10:39;99355.78;;;13.12;94.39
8318;BME280;4196;48.926;8.964;2022-07-15T03:13:26;99341.16;;;12.96;95.46
8318;BME280;4196;48.926;8.964;2022-07-15T03:16:12;99346.41;;;12.93;95.77
8318;BME280;4196;48.926;8.964;2022-07-15T03:19:03;99351.59;;;12.91;96.34
8318;BME280;4196;48.926;8.964;2022-07-15T03:21:50;99340.34;;;12.88;96.23
8318;BME280;4196;48.926;8.964;2022-07-15T03:24:39;99355.94;;;12.88;96.75
8318;BME280;4196;48.926;8.964;2022-07-15T03:27:26;99357.63;;;12.95;96.34
8318;BME280;4196;48.926;8.964;2022-07-15T03:30:13;99362.75;;;13.02;96.91
8318;BME280;4196;48.926;8.964;2022-07-15T03:33:01;99354.97;;;12.99;96.97
8318;BME280;4196;48.926;8.964;2022-07-15T03:35:49;99362.78;;;13.01;96.47
8318;BME280;4196;48.926;8.964;2022-07-15T03:38:38;99343.75;;;12.96;95.53
8318;BME280;4196;48.926;8.964;2022-07-15T03:41:25;99362.84;;;12.92;96.63
8318;BME280;4196;48.926;8.964;2022-07-15T03:44:13;99342.13;;;12.82;96.75
8318;BME280;4196;48.926;8.964;2022-07-15T03:46:59;99359.41;;;12.93;96.25
8318;BME280;4196;48.926;8.964;2022-07-15T03:49:46;99370.59;;;12.99;96.60
8318;BME280;4196;48.926;8.964;2022-07-15T03:52:33;99344.66;;;12.93;96.55
8318;BME280;4196;48.926;8.964;2022-07-15T03:55:19;99365.34;;;13.05;95.83
8318;BME280;4196;48.926;8.964;2022-07-15T03:58:06;99367.09;;;13.05;95.59
8318;BME280;4196;48.926;8.964;2022-07-15T04:00:53;99375.81;;;12.95;95.94
8318;BME280;4196;48.926;8.964;2022-07-15T04:03:40;99380.13;;;12.96;95.76
8318;BME280;4196;48.926;8.964;2022-07-15T04:06:26;99373.19;;;13.01;95.79
8318;BME280;4196;48.926;8.964;2022-07-15T04:09:13;99378.28;;;13.13;95.23
8318;BME280;4196;48.926;8.964;2022-07-15T04:11:59;99387.78;;;13.23;94.90
8318;BME280;4196;48.926;8.964;2022-07-15T04:14:46;99377.31;;;13.31;94.41
8318;BME280;4196;48.926;8.964;2022-07-15T04:17:35;99380.69;;;13.41;93.36
8318;BME280;4196;48.926;8.964;2022-07-15T04:20:22;99375.41;;;13.51;92.76
8318;BME280;4196;48.926;8.964;2022-07-15T04:23:12;99369.25;;;13.57;93.19
8318;BME280;4196;48.926;8.964;2022-07-15T04:25:58;99370.06;;;13.64;92.31
8318;BME280;4196;48.926;8.964;2022-07-15T04:28:47;99376.09;;;13.67;91.46
8318;BME280;4196;48.926;8.964;2022-07-15T04:31:33;99372.63;;;13.70;91.09
8318;BME280;4196;48.926;8.964;2022-07-15T04:34:31;99372.63;;;13.68;91.43
8318;BME280;4196;48.926;8.964;2022-07-15T04:37:18;99377.78;;;13.71;91.57
8318;BME280;4196;48.926;8.964;2022-07-15T04:40:10;99368.94;;;13.88;91.81
8318;BME280;4196;48.926;8.964;2022-07-15T04:42:59;99366.47;;;14.48;89.49
8318;BME280;4196;48.926;8.964;2022-07-15T04:45:46;99375.53;;;15.89;82.08
8318;BME280;4196;48.926;8.964;2022-07-15T04:48:38;99373.22;;;17.34;72.53
8318;BME280;4196;48.926;8.964;2022-07-15T04:51:44;99361.66;;;18.39;66.37
8318;BME280;4196;48.926;8.964;2022-07-15T04:54:30;99367.69;;;18.72;63.56
8318;BME280;4196;48.926;8.964;2022-07-15T04:57:17;99374.56;;;19.31;61.62
8318;BME280;4196;48.926;8.964;2022-07-15T05:00:05;99372.03;;;20.05;59.96
8318;BME280;4196;48.926;8.964;2022-07-15T05:02:55;99368.44;;;20.99;56.13
8318;BME280;4196;48.926;8.964;2022-07-15T05:05:43;99377.41;;;21.16;53.24
8318;BME280;4196;48.926;8.964;2022-07-15T05:08:32;99378.28;;;22.00;51.50
8318;BME280;4196;48.926;8.964;2022-07-15T05:11:18;99377.66;;;22.53;48.96
8318;BME280;4196;48.926;8.964;2022-07-15T05:14:07;99387.06;;;22.96;48.19
8318;BME280;4196;48.926;8.964;2022-07-15T05:16:53;99379.53;;;23.25;47.49
8318;BME280;4196;48.926;8.964;2022-07-15T05:19:41;99381.66;;;23.53;46.70
8318;BME280;4196;48.926;8.964;2022-07-15T05:22:28;99372.47;;;23.77;46.15
8318;BME280;4196;48.926;8.964;2022-07-15T05:25:15;99384.16;;;23.73;46.14
8318;BME280;4196;48.926;8.964;2022-07-15T05:28:02;99377.06;;;23.91;46.07
8318;BME280;4196;48.926;8.964;2022-07-15T05:30:48;99387.31;;;23.97;45.71
8318;BME280;4196;48.926;8.964;2022-07-15T05:33:35;99394.38;;;24.63;43.25
8318;BME280;4196;48.926;8.964;2022-07-15T05:36:25;99389.66;;;25.00;43.46
8318;BME280;4196;48.926;8.964;2022-07-15T05:39:15;99387.25;;;25.43;41.87
8318;BME280;4196;48.926;8.964;2022-07-15T05:42:02;99387.38;;;24.94;42.99
8318;BME280;4196;48.926;8.964;2022-07-15T05:44:50;99383.63;;;25.44;42.56
8318;BME280;4196;48.926;8.964;2022-07-15T05:47:36;99387.75;;;25.49;41.34
8318;BME280;4196;48.926;8.964;2022-07-15T05:50:23;99396.41;;;25.67;42.14
8318;BME280;4196;48.926;8.964;2022-07-15T05:53:14;99394.44;;;25.41;42.68
8318;BME280;4196;48.926;8.964;2022-07-15T05:56:02;99402.34;;;25.26;42.76
8318;BME280;4196;48.926;8.964;2022-07-15T05:58:48;99395.69;;;25.19;41.60
8318;BME280;4196;48.926;8.964;2022-07-15T06:01:35;99398.34;;;24.39;44.73
8318;BME280;4196;48.926;8.964;2022-07-15T06:04:22;99401.72;;;24.25;41.37
8318;BME280;4196;48.926;8.964;2022-07-15T06:07:09;99397.97;;;23.61;42.06
8318;BME280;4196;48.926;8.964;2022-07-15T06:09:56;99396.03;;;23.11;42.83
8318;BME280;4196;48.926;8.964;2022-07-15T06:12:43;99396.06;;;22.35;45.58
8318;BME280;4196;48.926;8.964;2022-07-15T06:15:30;99395.03;;;21.99;46.26
8318;BME280;4196;48.926;8.964;2022-07-15T06:18:17;99408.47;;;21.52;46.66
8318;BME280;4196;48.926;8.964;2022-07-15T06:21:04;99403.09;;;21.11;48.53
8318;BME280;4196;48.926;8.964;2022-07-15T06:23:52;99398.47;;;20.72;51.78
8318;BME280;4196;48.926;8.964;2022-07-15T06:26:38;99404.88;;;20.65;52.67
8318;BME280;4196;48.926;8.964;2022-07-15T06:29:26;99394.97;;;20.48;54.15
8318;BME280;4196;48.926;8.964;2022-07-15T06:32:14;99402.91;;;20.46;53.43
8318;BME280;4196;48.926;8.964;2022-07-15T06:35:02;99401.31;;;20.42;55.17
8318;BME280;4196;48.926;8.964;2022-07-15T06:37:49;99390.53;;;20.25;56.36
8318;BME280;4196;48.926;8.964;2022-07-15T06:40:35;99387.53;;;20.36;53.84
8318;BME280;4196;48.926;8.964;2022-07-15T06:43:22;99399.63;;;20.40;54.27
8318;BME280;4196;48.926;8.964;2022-07-15T06:46:26;99398.66;;;20.67;53.05
8318;BME280;4196;48.926;8.964;2022-07-15T06:49:14;99395.53;;;20.80;52.52
8318;BME280;4196;48.926;8.964;2022-07-15T06:52:01;99395.00;;;20.93;52.98
8318;BME280;4196;48.926;8.964;2022-07-15T06:54:47;99394.56;;;21.04;50.41
8318;BME280;4196;48.926;8.964;2022-07-15T06:57:35;99401.22;;;21.13;50.73
8318;BME280;4196;48.926;8.964;2022-07-15T07:00:21;99398.91;;;21.27;50.43
8318;BME280;4196;48.926;8.964;2022-07-15T07:03:08;99395.22;;;21.31;49.21
8318;BME280;4196;48.926;8.964;2022-07-15T07:05:55;99401.84;;;21.41;50.64
8318;BME280;4196;48.926;8.964;2022-07-15T07:08:41;99380.84;;;21.40;48.40
8318;BME280;4196;48.926;8.964;2022-07-15T07:11:28;99392.53;;;21.55;46.84
8318;BME280;4196;48.926;8.964;2022-07-15T07:14:15;99393.69;;;21.68;46.64
8318;BME280;4196;48.926;8.964;2022-07-15T07:17:01;99389.88;;;21.75;47.72
8318;BME280;4196;48.926;8.964;2022-07-15T07:19:48;99378.53;;;21.93;46.36
8318;BME280;4196;48.926;8.964;2022-07-15T07:22:34;99381.56;;;22.05;44.62
8318;BME280;4196;48.926;8.964;2022-07-15T07:25:22;99382.91;;;22.15;45.23
8318;BME280;4196;48.926;8.964;2022-07-15T07:28:08;99380.97;;;21.98;44.06
8318;BME280;4196;48.926;8.964;2022-07-15T07:30:55;99360.63;;;21.81;44.28
8318;BME280;4196;48.926;8.964;2022-07-15T07:33:41;99379.97;;;22.01;45.10
8318;BME280;4196;48.926;8.964;2022-07-15T07:36:28;99378.94;;;22.25;44.99
8318;BME280;4196;48.926;8.964;2022-07-15T07:39:15;99364.66;;;22.29;42.54
8318;BME280;4196;48.926;8.964;2022-07-15T07:42:02;99365.66;;;22.46;43.03
8318;BME280;4196;48.926;8.964;2022-07-15T07:44:48;99374.28;;;22.68;37.81
8318;BME280;4196;48.926;8.964;2022-07-15T07:47:35;99375.22;;;22.67;37.94
8318;BME280;4196;48.926;8.964;2022-07-15T07:50:26;99370.88;;;22.66;39.52
8318;BME280;4196;48.926;8.964;2022-07-15T07:53:12;99369.00;;;22.68;38.04
8318;BME280;4196;48.926;8.964;2022-07-15T07:55:59;99359.25;;;22.70;36.78
8318;BME280;4196;48.926;8.964;2022-07-15T07:58:45;99369.66;;;22.73;36.99
8318;BME280;4196;48.926;8.964;2022-07-15T08:01:32;99367.16;;;22.70;37.26
8318;BME280;4196;48.926;8.964;2022-07-15T08:04:20;99360.09;;;22.71;38.00
8318;BME280;4196;48.926;8.964;2022-07-15T08:07:07;99359.97;;;22.55;38.10
8318;BME280;4196;48.926;8.964;2022-07-15T08:09:54;99360.47;;;22.63;40.13
8318;BME280;4196;48.926;8.964;2022-07-15T08:12:40;99366.81;;;22.59;39.43
8318;BME280;4196;48.926;8.964;2022-07-15T08:15:27;99373.25;;;22.72;37.55
8318;BME280;4196;48.926;8.964;2022-07-15T08:18:15;99367.78;;;22.75;39.89
8318;BME280;4196;48.926;8.964;2022-07-15T08:21:02;99362.50;;;22.75;37.38
8318;BME280;4196;48.926;8.964;2022-07-15T08:23:49;99356.16;;;22.60;36.99
8318;BME280;4196;48.926;8.964;2022-07-15T08:26:36;99368.09;;;22.69;37.29
8318;BME280;4196;48.926;8.964;2022-07-15T08:29:23;99364.25;;;22.57;37.25
8318;BME280;4196;48.926;8.964;2022-07-15T08:32:10;99345.97;;;22.53;38.29
8318;BME280;4196;48.926;8.964;2022-07-15T08:34:57;99364.25;;;22.57;38.82
8318;BME280;4196;48.926;8.964;2022-07-15T08:37:43;99372.00;;;22.60;38.20
8318;BME280;4196;48.926;8.964;2022-07-15T08:40:30;99371.09;;;22.42;36.41
8318;BME280;4196;48.926;8.964;2022-07-15T08:43:17;99371.16;;;22.41;37.64
8318;BME280;4196;48.926;8.964;2022-07-15T08:46:06;99375.09;;;22.32;38.29
8318;BME280;4196;48.926;8.964;2022-07-15T08:48:58;99369.50;;;22.38;39.70
8318;BME280;4196;48.926;8.964;2022-07-15T08:51:47;99378.66;;;22.50;38.45
8318;BME280;4196;48.926;8.964;2022-07-15T08:54:33;99371.09;;;22.42;38.78
8318;BME280;4196;48.926;8.964;2022-07-15T08:57:20;99372.38;;;22.53;37.04
8318;BME280;4196;48.926;8.964;2022-07-15T09:00:07;99369.72;;;22.53;37.69
8318;BME280;4196;48.926;8.964;2022-07-15T09:03:00;99373.00;;;22.20;37.69
8318;BME280;4196;48.926;8.964;2022-07-15T09:05:47;99369.91;;;22.10;38.72
8318;BME280;4196;48.926;8.964;2022-07-15T09:08:33;99377.50;;;22.18;38.11
8318;BME280;4196;48.926;8.964;2022-07-15T09:11:28;99386.63;;;22.49;38.55
8318;BME280;4196;48.926;8.964;2022-07-15T09:14:15;99371.94;;;22.62;39.23
8318;BME280;4196;48.926;8.964;2022-07-15T09:20:10;99378.00;;;22.64;37.16
8318;BME280;4196;48.926;8.964;2022-07-15T09:23:00;99374.81;;;22.76;36.99
8318;BME280;4196;48.926;8.964;2022-07-15T09:25:48;99372.38;;;22.90;37.40
8318;BME280;4196;48.926;8.964;2022-07-15T09:28:40;99375.44;;;23.00;39.16
8318;BME280;4196;48.926;8.964;2022-07-15T09:31:36;99374.75;;;23.14;37.39
8318;BME280;4196;48.926;8.964;2022-07-15T09:35:03;99377.28;;;23.34;37.87
8318;BME280;4196;48.926;8.964;2022-07-15T09:37:57;99381.31;;;23.59;36.60
8318;BME280;4196;48.926;8.964;2022-07-15T09:40:48;99366.63;;;23.53;35.97
8318;BME280;4196;48.926;8.964;2022-07-15T09:43:46;99373.72;;;23.53;36.33
8318;BME280;4196;48.926;8.964;2022-07-15T09:46:56;99378.34;;;23.30;36.25
8318;BME280;4196;48.926;8.964;2022-07-15T09:49:43;99366.06;;;23.29;37.25
8318;BME280;4196;48.926;8.964;2022-07-15T09:52:45;99375.81;;;23.46;38.62
8318;BME280;4196;48.926;8.964;2022-07-15T09:55:33;99350.53;;;23.41;39.11
8318;BME280;4196;48.926;8.964;2022-07-15T09:58:20;99351.94;;;23.82;37.83
8318;BME280;4196;48.926;8.964;2022-07-15T10:01:09;99354.88;;;23.94;36.52
8318;BME280;4196;48.926;8.964;2022-07-15T10:03:56;99366.50;;;24.07;34.27
8318;BME280;4196;48.926;8.964;2022-07-15T10:06:44;99367.13;;;23.79;36.08
8318;BME280;4196;48.926;8.964;2022-07-15T10:09:49;99358.81;;;23.69;36.14
8318;BME280;4196;48.926;8.964;2022-07-15T10:12:59;99362.34;;;23.51;35.53
8318;BME280;4196;48.926;8.964;2022-07-15T10:19:18;99357.69;;;23.38;35.96
8318;BME280;4196;48.926;8.964;2022-07-15T10:28:48;99365.84;;;23.34;36.00
8318;BME280;4196;48.926;8.964;2022-07-15T10:31:38;99336.66;;;23.01;36.17
8318;BME280;4196;48.926;8.964;2022-07-15T10:34:32;99340.34;;;23.15;36.91
8318;BME280;4196;48.926;8.964;2022-07-15T10:37:19;99332.63;;;23.63;35.87
8318;BME280;4196;48.926;8.964;2022-07-15T10:40:06;99350.75;;;23.88;36.01
8318;BME280;4196;48.926;8.964;2022-07-15T10:42:58;99318.88;;;24.07;35.67
8318;BME280;4196;48.926;8.964;2022-07-15T10:46:04;99353.28;;;24.40;34.86
8318;BME280;4196;48.926;8.964;2022-07-15T10:51:47;99334.06;;;24.03;35.78
8318;BME280;4196;48.926;8.964;2022-07-15T10:57:21;99338.34;;;24.06;35.35
8318;BME280;4196;48.926;8.964;2022-07-15T11:00:33;99338.63;;;24.17;35.13
8318;BME280;4196;48.926;8.964;2022-07-15T11:03:20;99334.03;;;24.37;36.24
8318;BME280;4196;48.926;8.964;2022-07-15T11:06:07;99328.69;;;24.86;35.39
8318;BME280;4196;48.926;8.964;2022-07-15T11:08:54;99319.50;;;25.07;35.42
8318;BME280;4196;48.926;8.964;2022-07-15T11:11:45;99327.75;;;25.33;34.42
8318;BME280;4196;48.926;8.964;2022-07-15T11:14:57;99324.66;;;25.10;35.24
8318;BME280;4196;48.926;8.964;2022-07-15T11:17:46;99323.69;;;25.11;35.09
8318;BME280;4196;48.926;8.964;2022-07-15T11:20:39;99319.75;;;25.18;35.03
8318;BME280;4196;48.926;8.964;2022-07-15T11:23:30;99298.75;;;25.29;35.72
8318;BME280;4196;48.926;8.964;2022-07-15T11:26:17;99317.53;;;25.26;36.40
8318;BME280;4196;48.926;8.964;2022-07-15T11:29:04;99306.13;;;24.94;35.06
8318;BME280;4196;48.926;8.964;2022-07-15T11:31:51;99317.31;;;25.15;36.79
8318;BME280;4196;48.926;8.964;2022-07-15T11:34:40;99309.22;;;25.47;34.73
8318;BME280;4196;48.926;8.964;2022-07-15T11:37:32;99307.41;;;26.06;35.48
8318;BME280;4196;48.926;8.964;2022-07-15T11:40:19;99299.06;;;26.26;33.88
8318;BME280;4196;48.926;8.964;2022-07-15T11:43:25;99302.91;;;26.35;34.36
8318;BME280;4196;48.926;8.964;2022-07-15T11:46:30;99294.19;;;24.71;34.13
8318;BME280;4196;48.926;8.964;2022-07-15T11:49:28;99309.91;;;24.74;35.54
8318;BME280;4196;48.926;8.964;2022-07-15T11:52:24;99303.53;;;24.93;34.10
8318;BME280;4196;48.926;8.964;2022-07-15T11:55:11;99291.41;;;24.89;34.73
8318;BME280;4196;48.926;8.964;2022-07-15T11:57:57;99286.88;;;24.91;33.58
8318;BME280;4196;48.926;8.964;2022-07-15T12:00:48;99305.94;;;24.81;34.26
8318;BME280;4196;48.926;8.964;2022-07-15T12:03:41;99308.69;;;25.12;33.94
8318;BME280;4196;48.926;8.964;2022-07-15T12:06:32;99297.22;;;25.70;35.06
8318;BME280;4196;48.926;8.964;2022-07-15T12:09:19;99280.47;;;26.12;35.47
8318;BME280;4196;48.926;8.964;2022-07-15T12:12:06;99284.41;;;26.62;32.68
8318;BME280;4196;48.926;8.964;2022-07-15T12:14:52;99210.28;;;26.31;31.27
8318;BME280;4196;48.926;8.964;2022-07-15T12:17:39;99286.25;;;26.33;31.82
8318;BME280;4196;48.926;8.964;2022-07-15T12:20:26;99302.06;;;26.76;32.98
8318;BME280;4196;48.926;8.964;2022-07-15T12:23:13;99275.31;;;26.79;31.76
8318;BME280;4196;48.926;8.964;2022-07-15T12:26:10;99293.94;;;26.23;32.91
8318;BME280;4196;48.926;8.964;2022-07-15T12:28:59;99293.06;;;26.52;32.26
8318;BME280;4196;48.926;8.964;2022-07-15T12:31:54;99294.47;;;26.29;32.13
8318;BME280;4196;48.926;8.964;2022-07-15T12:34:48;99285.44;;;26.04;32.28
8318;BME280;4196;48.926;8.964;2022-07-15T12:40:23;99284.28;;;26.08;31.65
8318;BME280;4196;48.926;8.964;2022-07-15T12:43:10;99272.72;;;25.95;32.59
8318;BME280;4196;48.926;8.964;2022-07-15T12:45:56;99256.66;;;26.25;33.99
8318;BME280;4196;48.926;8.964;2022-07-15T12:48:48;99265.28;;;26.29;32.10
8318;BME280;4196;48.926;8.964;2022-07-15T12:51:35;99275.34;;;25.66;33.42
8318;BME280;4196;48.926;8.964;2022-07-15T12:54:22;99286.94;;;25.94;34.40
8318;BME280;4196;48.926;8.964;2022-07-15T12:57:23;99286.41;;;26.44;34.24
8318;BME280;4196;48.926;8.964;2022-07-15T13:00:19;99285.13;;;26.91;31.06
8318;BME280;4196;48.926;8.964;2022-07-15T13:06:07;99283.44;;;26.63;31.50
8318;BME280;4196;48.926;8.964;2022-07-15T13:08:53;99274.34;;;26.80;31.84
8318;BME280;4196;48.926;8.964;2022-07-15T13:11:57;99285.38;;;26.47;32.13
8318;BME280;4196;48.926;8.964;2022-07-15T13:14:44;99290.44;;;26.09;32.01
8318;BME280;4196;48.926;8.964;2022-07-15T13:17:30;99291.88;;;25.86;32.39
8318;BME280;4196;48.926;8.964;2022-07-15T13:20:17;99293.56;;;26.01;32.95
8318;BME280;4196;48.926;8.964;2022-07-15T13:23:05;99282.88;;;25.44;32.99
8318;BME280;4196;48.926;8.964;2022-07-15T13:25:53;99284.75;;;24.81;34.10
8318;BME280;4196;48.926;8.964;2022-07-15T13:28:40;99275.69;;;25.32;35.01
8318;BME280;4196;48.926;8.964;2022-07-15T13:31:27;99290.56;;;25.78;34.90
8318;BME280;4196;48.926;8.964;2022-07-15T13:34:14;99281.03;;;25.74;33.24
8318;BME280;4196;48.926;8.964;2022-07-15T13:37:00;99286.75;;;25.97;33.78
8318;BME280;4196;48.926;8.964;2022-07-15T13:39:47;99288.41;;;26.41;32.73
8318;BME280;4196;48.926;8.964;2022-07-15T13:42:33;99284.00;;;25.98;32.32
8318;BME280;4196;48.926;8.964;2022-07-15T13:45:20;99278.00;;;25.66;33.17
8318;BME280;4196;48.926;8.964;2022-07-15T13:48:07;99279.13;;;25.76;32.92
8318;BME280;4196;48.926;8.964;2022-07-15T13:50:54;99275.38;;;25.81;35.47
8318;BME280;4196;48.926;8.964;2022-07-15T13:53:59;99282.00;;;25.88;34.62
8318;BME280;4196;48.926;8.964;2022-07-15T13:56:46;99285.81;;;25.84;33.21
8318;BME280;4196;48.926;8.964;2022-07-15T13:59:38;99289.94;;;25.73;32.94
8318;BME280;4196;48.926;8.964;2022-07-15T14:02:25;99287.19;;;25.61;33.33
8318;BME280;4196;48.926;8.964;2022-07-15T14:05:12;99293.94;;;25.06;33.24
8318;BME280;4196;48.926;8.964;2022-07-15T14:07:59;99296.72;;;24.89;33.53
8318;BME280;4196;48.926;8.964;2022-07-15T14:10:46;99293.94;;;24.76;33.50
8318;BME280;4196;48.926;8.964;2022-07-15T14:13:32;99289.84;;;25.16;33.78
8318;BME280;4196;48.926;8.964;2022-07-15T14:16:19;99295.25;;;25.59;34.11
8318;BME280;4196;48.926;8.964;2022-07-15T14:19:07;99292.13;;;25.06;32.53
8318;BME280;4196;48.926;8.964;2022-07-15T14:21:53;99289.69;;;25.19;34.74
8318;BME280;4196;48.926;8.964;2022-07-15T14:24:40;99291.47;;;25.19;32.89
8318;BME280;4196;48.926;8.964;2022-07-15T14:27:27;99293.81;;;24.93;33.01
8318;BME280;4196;48.926;8.964;2022-07-15T14:30:14;99282.28;;;25.24;33.98
8318;BME280;4196;48.926;8.964;2022-07-15T14:33:04;99282.16;;;25.56;33.30
8318;BME280;4196;48.926;8.964;2022-07-15T14:35:51;99268.91;;;25.56;31.68
8318;BME280;4196;48.926;8.964;2022-07-15T14:38:37;99270.13;;;25.65;32.70
8318;BME280;4196;48.926;8.964;2022-07-15T14:41:24;99268.16;;;25.68;32.64
8318;BME280;4196;48.926;8.964;2022-07-15T14:44:11;99271.03;;;25.80;32.41
8318;BME280;4196;48.926;8.964;2022-07-15T14:46:57;99261.38;;;25.93;32.70
8318;BME280;4196;48.926;8.964;2022-07-15T14:49:44;99267.59;;;25.63;31.94
8318;BME280;4196;48.926;8.964;2022-07-15T14:52:30;99257.75;;;25.80;31.15
8318;BME280;4196;48.926;8.964;2022-07-15T14:55:18;99243.81;;;25.62;30.31
8318;BME280;4196;48.926;8.964;2022-07-15T14:58:04;99251.47;;;25.66;31.07
8318;BME280;4196;48.926;8.964;2022-07-15T15:00:51;99256.94;;;25.35;31.70
8318;BME280;4196;48.926;8.964;2022-07-15T15:03:45;99234.31;;;24.99;32.35
8318;BME280;4196;48.926;8.964;2022-07-15T15:06:31;99272.13;;;24.87;32.42
8318;BME280;4196;48.926;8.964;2022-07-15T15:09:18;99259.00;;;24.69;33.56
8318;BME280;4196;48.926;8.964;2022-07-15T15:12:05;99267.41;;;24.92;32.72
8318;BME280;4196;48.926;8.964;2022-07-15T15:14:54;99268.63;;;24.86;32.50
8318;BME280;4196;48.926;8.964;2022-07-15T15:17:41;99276.28;;;24.91;34.15
8318;BME280;4196;48.926;8.964;2022-07-15T15:20:28;99254.31;;;25.04;32.98
8318;BME280;4196;48.926;8.964;2022-07-15T15:23:15;99273.31;;;25.27;34.13
8318;BME280;4196;48.926;8.964;2022-07-15T15:26:02;99263.88;;;25.37;32.92
8318;BME280;4196;48.926;8.964;2022-07-15T15:29:07;99264.09;;;25.18;31.62
8318;BME280;4196;48.926;8.964;2022-07-15T15:31:54;99261.69;;;24.83;32.63
8318;BME280;4196;48.926;8.964;2022-07-15T15:34:40;99274.00;;;24.85;33.92
8318;BME280;4196;48.926;8.964;2022-07-15T15:37:27;99275.22;;;24.63;34.06
8318;BME280;4196;48.926;8.964;2022-07-15T15:40:14;99271.41;;;24.53;34.55
8318;BME280;4196;48.926;8.964;2022-07-15T15:43:02;99274.22;;;24.50;34.93
8318;BME280;4196;48.926;8.964;2022-07-15T15:45:50;99275.16;;;24.65;33.34